APG915 RPLL-RPVR
Flight info
| Callsign | APG915 |
|---|---|
| Flight time | 0h 39m |
| Altitude | 23000 |
| Route | IPATA2R IPATA DCT SAGRA TR16 SIBUN |
| Aircraft | A320/M-SDE3FGHIRWY/LB1 |
Departure
| Time | 2026-04-16 05:34 |
|---|---|
| Airport | Ninoy Aquino International Airport (RPLL) |
Arrival
| Time | 2026-04-16 06:13 |
|---|---|
| Airport | Roxas Airport (RPVR) |
| Time | Latitude | Longitude | Altitude | Speed | Heading |
|---|---|---|---|---|---|
| 2026-04-16 05:06 | 14.51649 | 121.01720 | 69 ft | 0 kts | 225° |
| 2026-04-16 05:21 | 14.51650 | 121.01721 | 69 ft | 2 kts | 225° |
| 2026-04-16 05:22 | 14.51662 | 121.01732 | 59 ft | 2 kts | 221° |
| 2026-04-16 05:22 | 14.51675 | 121.01743 | 59 ft | 2 kts | 215° |
| 2026-04-16 05:22 | 14.51689 | 121.01752 | 59 ft | 2 kts | 204° |
| 2026-04-16 05:22 | 14.51704 | 121.01757 | 66 ft | 2 kts | 176° |
| 2026-04-16 05:23 | 14.51720 | 121.01752 | 60 ft | 2 kts | 140° |
| 2026-04-16 05:23 | 14.51725 | 121.01748 | 60 ft | 0 kts | 135° |
| 2026-04-16 05:25 | 14.51716 | 121.01757 | 62 ft | 4 kts | 136° |
| 2026-04-16 05:25 | 14.51683 | 121.01780 | 66 ft | 7 kts | 155° |
| 2026-04-16 05:25 | 14.51627 | 121.01775 | 66 ft | 9 kts | 210° |
| 2026-04-16 05:25 | 14.51575 | 121.01724 | 63 ft | 12 kts | 223° |
| 2026-04-16 05:26 | 14.51510 | 121.01660 | 67 ft | 14 kts | 223° |
| 2026-04-16 05:26 | 14.51434 | 121.01619 | 62 ft | 6 kts | 166° |
| 2026-04-16 05:26 | 14.51398 | 121.01649 | 65 ft | 8 kts | 135° |
| 2026-04-16 05:26 | 14.51356 | 121.01693 | 68 ft | 10 kts | 135° |
| 2026-04-16 05:27 | 14.51301 | 121.01749 | 64 ft | 12 kts | 135° |
| 2026-04-16 05:27 | 14.51236 | 121.01817 | 64 ft | 14 kts | 134° |
| 2026-04-16 05:27 | 14.51162 | 121.01892 | 59 ft | 16 kts | 135° |
| 2026-04-16 05:27 | 14.51084 | 121.01975 | 61 ft | 15 kts | 136° |
| 2026-04-16 05:28 | 14.51043 | 121.01981 | 69 ft | 4 kts | 219° |
| 2026-04-16 05:28 | 14.51017 | 121.01945 | 65 ft | 10 kts | 239° |
| 2026-04-16 05:28 | 14.50968 | 121.01859 | 67 ft | 17 kts | 239° |
| 2026-04-16 05:28 | 14.50905 | 121.01745 | 68 ft | 20 kts | 240° |
| 2026-04-16 05:29 | 14.50834 | 121.01618 | 67 ft | 21 kts | 239° |
| 2026-04-16 05:29 | 14.50758 | 121.01484 | 62 ft | 22 kts | 241° |
| 2026-04-16 05:29 | 14.50681 | 121.01340 | 67 ft | 23 kts | 241° |
| 2026-04-16 05:29 | 14.50598 | 121.01191 | 67 ft | 24 kts | 239° |
| 2026-04-16 05:30 | 14.50511 | 121.01036 | 60 ft | 26 kts | 241° |
| 2026-04-16 05:30 | 14.50419 | 121.00875 | 65 ft | 27 kts | 239° |
| 2026-04-16 05:30 | 14.50328 | 121.00706 | 66 ft | 27 kts | 240° |
| 2026-04-16 05:30 | 14.50231 | 121.00534 | 64 ft | 28 kts | 240° |
| 2026-04-16 05:31 | 14.50132 | 121.00356 | 64 ft | 29 kts | 239° |
| 2026-04-16 05:31 | 14.50032 | 121.00177 | 64 ft | 29 kts | 240° |
| 2026-04-16 05:31 | 14.49936 | 121.00006 | 65 ft | 21 kts | 236° |
| 2026-04-16 05:31 | 14.49859 | 120.99975 | 67 ft | 11 kts | 154° |
| 2026-04-16 05:32 | 14.49814 | 121.00029 | 65 ft | 10 kts | 99° |
| 2026-04-16 05:32 | 14.49836 | 121.00098 | 61 ft | 11 kts | 61° |
| 2026-04-16 05:32 | 14.49850 | 121.00123 | 64 ft | 0 kts | 60° |
| 2026-04-16 05:33 | 14.49858 | 121.00138 | 61 ft | 11 kts | 60° |
| 2026-04-16 05:33 | 14.50009 | 121.00412 | 65 ft | 79 kts | 59° |
| 2026-04-16 05:33 | 14.50387 | 121.01089 | 67 ft | 136 kts | 59° |
| 2026-04-16 05:34 | 14.50928 | 121.02067 | 139 ft | 172 kts | 63° |
| 2026-04-16 05:34 | 14.51489 | 121.03148 | 781 ft | 170 kts | 64° |
| 2026-04-16 05:34 | 14.52077 | 121.04222 | 1396 ft | 172 kts | 62° |
| 2026-04-16 05:34 | 14.52686 | 121.05289 | 1971 ft | 177 kts | 61° |
| 2026-04-16 05:35 | 14.53342 | 121.06443 | 2379 ft | 194 kts | 62° |
| 2026-04-16 05:35 | 14.54054 | 121.07714 | 2751 ft | 217 kts | 62° |
| 2026-04-16 05:35 | 14.54841 | 121.09130 | 3258 ft | 237 kts | 62° |
| 2026-04-16 05:35 | 14.55695 | 121.10666 | 3806 ft | 256 kts | 61° |
| 2026-04-16 05:36 | 14.56588 | 121.12300 | 4593 ft | 263 kts | 65° |
| 2026-04-16 05:36 | 14.57228 | 121.14057 | 5588 ft | 263 kts | 76° |
| 2026-04-16 05:36 | 14.57525 | 121.15945 | 6411 ft | 270 kts | 83° |
| 2026-04-16 05:36 | 14.57728 | 121.17883 | 7197 ft | 275 kts | 83° |
| 2026-04-16 05:37 | 14.57949 | 121.19861 | 8020 ft | 279 kts | 83° |
| 2026-04-16 05:37 | 14.58179 | 121.21861 | 8859 ft | 283 kts | 84° |
| 2026-04-16 05:37 | 14.58390 | 121.23888 | 9696 ft | 285 kts | 90° |
| 2026-04-16 05:37 | 14.58055 | 121.25906 | 10364 ft | 293 kts | 112° |
| 2026-04-16 05:38 | 14.56902 | 121.27714 | 10617 ft | 316 kts | 135° |
| 2026-04-16 05:38 | 14.55133 | 121.29192 | 10843 ft | 337 kts | 143° |
| 2026-04-16 05:38 | 14.53196 | 121.30611 | 11436 ft | 344 kts | 144° |
| 2026-04-16 05:38 | 14.51889 | 121.31556 | 11852 ft | 348 kts | 143° |
| 2026-04-16 05:39 | 14.49219 | 121.33518 | 12741 ft | 356 kts | 142° |
| 2026-04-16 05:39 | 14.47205 | 121.35035 | 13409 ft | 361 kts | 142° |
| 2026-04-16 05:39 | 14.45860 | 121.36058 | 13820 ft | 365 kts | 142° |
| 2026-04-16 05:39 | 14.43111 | 121.38164 | 14576 ft | 370 kts | 141° |
| 2026-04-16 05:40 | 14.41034 | 121.39760 | 15156 ft | 374 kts | 141° |
| 2026-04-16 05:40 | 14.39644 | 121.40826 | 15528 ft | 377 kts | 141° |
| 2026-04-16 05:40 | 14.37530 | 121.42449 | 16078 ft | 381 kts | 141° |
| 2026-04-16 05:40 | 14.35387 | 121.44091 | 16604 ft | 386 kts | 141° |
| 2026-04-16 05:41 | 14.33224 | 121.45747 | 17140 ft | 389 kts | 141° |
| 2026-04-16 05:41 | 14.31038 | 121.47420 | 17663 ft | 393 kts | 141° |
| 2026-04-16 05:41 | 14.28831 | 121.49110 | 18185 ft | 397 kts | 141° |
| 2026-04-16 05:41 | 14.26606 | 121.50811 | 18646 ft | 400 kts | 141° |
| 2026-04-16 05:42 | 14.24366 | 121.52522 | 19143 ft | 401 kts | 141° |
| 2026-04-16 05:42 | 14.22116 | 121.54239 | 19642 ft | 403 kts | 141° |
| 2026-04-16 05:42 | 14.19857 | 121.55963 | 20121 ft | 406 kts | 141° |
| 2026-04-16 05:42 | 14.17581 | 121.57700 | 20591 ft | 408 kts | 141° |
| 2026-04-16 05:43 | 14.15297 | 121.59441 | 21102 ft | 409 kts | 141° |
| 2026-04-16 05:43 | 14.13003 | 121.61190 | 21563 ft | 412 kts | 142° |
| 2026-04-16 05:43 | 14.10697 | 121.62950 | 22051 ft | 413 kts | 142° |
| 2026-04-16 05:43 | 14.08381 | 121.64719 | 22533 ft | 415 kts | 142° |
| 2026-04-16 05:44 | 14.06057 | 121.66495 | 22882 ft | 417 kts | 142° |
| 2026-04-16 05:44 | 14.03721 | 121.68281 | 22920 ft | 419 kts | 142° |
| 2026-04-16 05:44 | 14.01387 | 121.70062 | 22922 ft | 418 kts | 142° |
| 2026-04-16 05:44 | 13.99053 | 121.71841 | 22925 ft | 418 kts | 142° |
| 2026-04-16 05:45 | 13.96715 | 121.73624 | 22919 ft | 418 kts | 142° |
| 2026-04-16 05:45 | 13.94376 | 121.75406 | 22921 ft | 418 kts | 142° |
| 2026-04-16 05:45 | 13.92038 | 121.77188 | 22920 ft | 418 kts | 142° |
| 2026-04-16 05:45 | 13.89698 | 121.78969 | 22918 ft | 418 kts | 143° |
| 2026-04-16 05:46 | 13.87281 | 121.80646 | 22917 ft | 420 kts | 148° |
| 2026-04-16 05:46 | 13.84743 | 121.82125 | 22917 ft | 420 kts | 152° |
| 2026-04-16 05:46 | 13.82099 | 121.83408 | 22918 ft | 420 kts | 155° |
| 2026-04-16 05:46 | 13.79424 | 121.84626 | 22918 ft | 421 kts | 155° |
| 2026-04-16 05:47 | 13.76749 | 121.85857 | 22917 ft | 421 kts | 155° |
| 2026-04-16 05:47 | 13.74078 | 121.87089 | 22915 ft | 421 kts | 155° |
| 2026-04-16 05:47 | 13.71405 | 121.88321 | 22916 ft | 421 kts | 155° |
| 2026-04-16 05:47 | 13.68731 | 121.89551 | 22914 ft | 421 kts | 155° |
| 2026-04-16 05:48 | 13.66058 | 121.90780 | 22911 ft | 421 kts | 155° |
| 2026-04-16 05:48 | 13.63384 | 121.92009 | 22913 ft | 421 kts | 155° |
| 2026-04-16 05:48 | 13.60712 | 121.93236 | 22912 ft | 421 kts | 155° |
| 2026-04-16 05:48 | 13.58071 | 121.94448 | 22912 ft | 421 kts | 155° |
| 2026-04-16 05:49 | 13.55361 | 121.95692 | 22909 ft | 421 kts | 155° |
| 2026-04-16 05:49 | 13.52721 | 121.96904 | 22908 ft | 421 kts | 155° |
| 2026-04-16 05:49 | 13.50047 | 121.98131 | 22911 ft | 421 kts | 155° |
| 2026-04-16 05:49 | 13.47371 | 121.99359 | 22906 ft | 421 kts | 155° |
| 2026-04-16 05:50 | 13.44697 | 122.00586 | 22911 ft | 421 kts | 155° |
| 2026-04-16 05:50 | 13.42022 | 122.01812 | 22914 ft | 421 kts | 155° |
| 2026-04-16 05:50 | 13.39346 | 122.03038 | 22910 ft | 421 kts | 155° |
| 2026-04-16 05:50 | 13.36671 | 122.04264 | 22912 ft | 421 kts | 155° |
| 2026-04-16 05:51 | 13.33998 | 122.05489 | 22912 ft | 421 kts | 155° |
| 2026-04-16 05:51 | 13.31325 | 122.06714 | 22913 ft | 421 kts | 155° |
| 2026-04-16 05:51 | 13.28652 | 122.07937 | 22916 ft | 421 kts | 155° |
| 2026-04-16 05:51 | 13.25977 | 122.09161 | 22913 ft | 421 kts | 155° |
| 2026-04-16 05:52 | 13.23304 | 122.10385 | 22915 ft | 421 kts | 155° |
| 2026-04-16 05:52 | 13.20632 | 122.11608 | 22914 ft | 420 kts | 155° |
| 2026-04-16 05:52 | 13.17962 | 122.12829 | 22916 ft | 420 kts | 155° |
| 2026-04-16 05:52 | 13.15296 | 122.14049 | 22913 ft | 420 kts | 155° |
| 2026-04-16 05:53 | 13.12623 | 122.15271 | 22914 ft | 420 kts | 155° |
| 2026-04-16 05:53 | 13.09957 | 122.16490 | 22914 ft | 420 kts | 155° |
| 2026-04-16 05:53 | 13.07288 | 122.17709 | 22916 ft | 419 kts | 155° |
| 2026-04-16 05:53 | 13.04623 | 122.18928 | 22914 ft | 419 kts | 155° |
| 2026-04-16 05:54 | 13.01956 | 122.20146 | 22911 ft | 420 kts | 155° |
| 2026-04-16 05:54 | 12.99289 | 122.21365 | 22913 ft | 420 kts | 155° |
| 2026-04-16 05:54 | 12.96621 | 122.22583 | 22914 ft | 420 kts | 155° |
| 2026-04-16 05:54 | 12.93955 | 122.23801 | 22912 ft | 420 kts | 155° |
| 2026-04-16 05:55 | 12.91287 | 122.25018 | 22914 ft | 419 kts | 155° |
| 2026-04-16 05:55 | 12.88623 | 122.26234 | 22915 ft | 419 kts | 155° |
| 2026-04-16 05:55 | 12.85954 | 122.27452 | 22913 ft | 420 kts | 155° |
| 2026-04-16 05:55 | 12.83286 | 122.28669 | 22914 ft | 420 kts | 155° |
| 2026-04-16 05:56 | 12.80621 | 122.29884 | 22755 ft | 420 kts | 155° |
| 2026-04-16 05:56 | 12.77954 | 122.31100 | 22501 ft | 418 kts | 155° |
| 2026-04-16 05:56 | 12.75300 | 122.32310 | 22027 ft | 419 kts | 155° |
| 2026-04-16 05:56 | 12.72634 | 122.33525 | 21427 ft | 418 kts | 155° |
| 2026-04-16 05:57 | 12.69986 | 122.34730 | 20845 ft | 415 kts | 155° |
| 2026-04-16 05:57 | 12.67361 | 122.35924 | 20255 ft | 411 kts | 155° |
| 2026-04-16 05:57 | 12.64757 | 122.37109 | 19682 ft | 408 kts | 154° |
| 2026-04-16 05:57 | 12.62173 | 122.38284 | 19105 ft | 405 kts | 154° |
| 2026-04-16 05:58 | 12.59608 | 122.39450 | 18522 ft | 402 kts | 154° |
| 2026-04-16 05:58 | 12.57056 | 122.40611 | 17912 ft | 400 kts | 154° |
| 2026-04-16 05:58 | 12.54525 | 122.41763 | 17327 ft | 396 kts | 154° |
| 2026-04-16 05:58 | 12.52022 | 122.42903 | 16761 ft | 392 kts | 154° |
| 2026-04-16 05:59 | 12.49541 | 122.44033 | 16200 ft | 388 kts | 154° |
| 2026-04-16 05:59 | 12.47088 | 122.45150 | 15644 ft | 385 kts | 154° |
| 2026-04-16 05:59 | 12.44650 | 122.46260 | 15089 ft | 382 kts | 154° |
| 2026-04-16 05:59 | 12.42227 | 122.47363 | 14536 ft | 380 kts | 154° |
| 2026-04-16 06:00 | 12.39820 | 122.48459 | 13988 ft | 378 kts | 154° |
| 2026-04-16 06:00 | 12.37424 | 122.49549 | 13406 ft | 376 kts | 155° |
| 2026-04-16 06:00 | 12.35051 | 122.50628 | 12864 ft | 371 kts | 155° |
| 2026-04-16 06:00 | 12.32706 | 122.51693 | 12333 ft | 366 kts | 155° |
| 2026-04-16 06:01 | 12.30391 | 122.52744 | 11806 ft | 362 kts | 155° |
| 2026-04-16 06:01 | 12.28104 | 122.53783 | 11286 ft | 358 kts | 155° |
| 2026-04-16 06:01 | 12.25841 | 122.54810 | 10767 ft | 354 kts | 155° |
| 2026-04-16 06:01 | 12.23609 | 122.55823 | 10424 ft | 345 kts | 155° |
| 2026-04-16 06:02 | 12.19492 | 122.57688 | 10064 ft | 303 kts | 154° |
| 2026-04-16 06:02 | 12.17621 | 122.58536 | 9887 ft | 286 kts | 154° |
| 2026-04-16 06:02 | 12.15781 | 122.59372 | 9775 ft | 293 kts | 154° |
| 2026-04-16 06:03 | 12.13901 | 122.60227 | 9413 ft | 298 kts | 154° |
| 2026-04-16 06:03 | 12.12036 | 122.61075 | 9033 ft | 297 kts | 155° |
| 2026-04-16 06:03 | 12.10125 | 122.61917 | 8628 ft | 294 kts | 159° |
| 2026-04-16 06:03 | 12.08182 | 122.62453 | 8261 ft | 291 kts | 169° |
| 2026-04-16 06:04 | 12.06166 | 122.62758 | 7891 ft | 288 kts | 170° |
| 2026-04-16 06:04 | 12.04222 | 122.63060 | 7524 ft | 285 kts | 170° |
| 2026-04-16 06:04 | 12.02271 | 122.63368 | 7152 ft | 282 kts | 170° |
| 2026-04-16 06:04 | 12.00340 | 122.63676 | 6791 ft | 280 kts | 170° |
| 2026-04-16 06:05 | 11.98422 | 122.63980 | 6424 ft | 278 kts | 170° |
| 2026-04-16 06:05 | 11.96516 | 122.64282 | 6053 ft | 276 kts | 170° |
| 2026-04-16 06:05 | 11.94625 | 122.64581 | 5689 ft | 274 kts | 171° |
| 2026-04-16 06:05 | 11.92755 | 122.64875 | 5326 ft | 271 kts | 170° |
| 2026-04-16 06:06 | 11.90895 | 122.65169 | 4968 ft | 269 kts | 171° |
| 2026-04-16 06:06 | 11.89051 | 122.65459 | 4608 ft | 267 kts | 171° |
| 2026-04-16 06:06 | 11.87222 | 122.65747 | 4235 ft | 265 kts | 171° |
| 2026-04-16 06:06 | 11.85407 | 122.66033 | 3903 ft | 263 kts | 170° |
| 2026-04-16 06:07 | 11.83617 | 122.66314 | 3674 ft | 256 kts | 170° |
| 2026-04-16 06:07 | 11.81907 | 122.66583 | 3533 ft | 240 kts | 170° |
| 2026-04-16 06:07 | 11.80318 | 122.66832 | 3395 ft | 222 kts | 170° |
| 2026-04-16 06:07 | 11.78846 | 122.67063 | 3290 ft | 205 kts | 170° |
| 2026-04-16 06:08 | 11.77515 | 122.67271 | 3203 ft | 182 kts | 170° |
| 2026-04-16 06:08 | 11.76359 | 122.67450 | 3062 ft | 155 kts | 169° |
| 2026-04-16 06:08 | 11.75343 | 122.67609 | 2799 ft | 144 kts | 169° |
| 2026-04-16 06:08 | 11.74354 | 122.67768 | 2445 ft | 144 kts | 169° |
| 2026-04-16 06:09 | 11.73383 | 122.67923 | 2219 ft | 136 kts | 169° |
| 2026-04-16 06:09 | 11.72410 | 122.68077 | 2038 ft | 144 kts | 169° |
| 2026-04-16 06:09 | 11.71427 | 122.68232 | 2024 ft | 144 kts | 168° |
| 2026-04-16 06:09 | 11.70437 | 122.68388 | 2017 ft | 143 kts | 168° |
| 2026-04-16 06:10 | 11.69443 | 122.68544 | 2019 ft | 146 kts | 168° |
| 2026-04-16 06:10 | 11.68478 | 122.68805 | 2009 ft | 143 kts | 149° |
| 2026-04-16 06:10 | 11.67672 | 122.69383 | 1941 ft | 141 kts | 138° |
| 2026-04-16 06:10 | 11.66897 | 122.69993 | 1843 ft | 140 kts | 139° |
| 2026-04-16 06:11 | 11.66115 | 122.70593 | 1742 ft | 141 kts | 139° |
| 2026-04-16 06:11 | 11.65331 | 122.71192 | 1578 ft | 141 kts | 139° |
| 2026-04-16 06:11 | 11.64556 | 122.71784 | 1386 ft | 137 kts | 139° |
| 2026-04-16 06:11 | 11.63790 | 122.72371 | 1213 ft | 139 kts | 139° |
| 2026-04-16 06:12 | 11.63021 | 122.72974 | 953 ft | 140 kts | 138° |
| 2026-04-16 06:12 | 11.62226 | 122.73560 | 570 ft | 142 kts | 143° |
| 2026-04-16 06:12 | 11.61418 | 122.74109 | 270 ft | 134 kts | 143° |
| 2026-04-16 06:12 | 11.60663 | 122.74649 | 107 ft | 136 kts | 142° |
| 2026-04-16 06:13 | 11.59889 | 122.75195 | 10 ft | 124 kts | 142° |
| 2026-04-16 06:13 | 11.59404 | 122.75554 | 8 ft | 65 kts | 144° |
| 2026-04-16 06:13 | 11.59191 | 122.75715 | 8 ft | 19 kts | 131° |
| 2026-04-16 06:13 | 11.59119 | 122.75769 | 8 ft | 9 kts | 138° |
| 2026-04-16 06:14 | 11.59101 | 122.75778 | 8 ft | 1 kts | 189° |
| 2026-04-16 06:14 | 11.59095 | 122.75770 | 8 ft | 1 kts | 245° |
| 2026-04-16 06:14 | 11.59098 | 122.75766 | 8 ft | 2 kts | 290° |
| 2026-04-16 06:14 | 11.59138 | 122.75735 | 8 ft | 11 kts | 327° |
| 2026-04-16 06:15 | 11.59211 | 122.75685 | 7 ft | 14 kts | 326° |